sensor_id;sensor_type;location;lat;lon;timestamp;temperature;humidity
21678;DHT22;11000;50.360;7.582;2024-03-02T00:00:18;8.20;99.90
21678;DHT22;11000;50.360;7.582;2024-03-02T00:02:41;8.20;99.90
21678;DHT22;11000;50.360;7.582;2024-03-02T00:05:02;8.20;99.90
21678;DHT22;11000;50.360;7.582;2024-03-02T00:07:23;8.20;99.90
21678;DHT22;11000;50.360;7.582;2024-03-02T00:09:45;8.20;99.90
21678;DHT22;11000;50.360;7.582;2024-03-02T00:12:05;8.20;99.90
21678;DHT22;11000;50.360;7.582;2024-03-02T00:14:29;8.20;99.90
21678;DHT22;11000;50.360;7.582;2024-03-02T00:16:51;8.20;99.90
21678;DHT22;11000;50.360;7.582;2024-03-02T00:19:12;8.20;99.90
21678;DHT22;11000;50.360;7.582;2024-03-02T00:21:33;8.20;99.90
21678;DHT22;11000;50.360;7.582;2024-03-02T00:23:53;8.20;99.90
21678;DHT22;11000;50.360;7.582;2024-03-02T00:26:14;8.20;99.90
21678;DHT22;11000;50.360;7.582;2024-03-02T00:28:36;8.20;99.90
21678;DHT22;11000;50.360;7.582;2024-03-02T00:31:04;8.20;99.90
21678;DHT22;11000;50.360;7.582;2024-03-02T00:33:46;8.20;99.90
21678;DHT22;11000;50.360;7.582;2024-03-02T00:36:07;8.20;99.90
21678;DHT22;11000;50.360;7.582;2024-03-02T00:38:29;8.20;99.90
21678;DHT22;11000;50.360;7.582;2024-03-02T00:40:49;8.20;99.90
21678;DHT22;11000;50.360;7.582;2024-03-02T00:46:00;8.20;99.90
21678;DHT22;11000;50.360;7.582;2024-03-02T00:48:21;8.20;99.90
21678;DHT22;11000;50.360;7.582;2024-03-02T00:50:41;8.20;99.90
21678;DHT22;11000;50.360;7.582;2024-03-02T00:53:02;8.30;99.90
21678;DHT22;11000;50.360;7.582;2024-03-02T00:55:22;8.30;99.90
21678;DHT22;11000;50.360;7.582;2024-03-02T00:57:43;8.20;99.90
21678;DHT22;11000;50.360;7.582;2024-03-02T01:00:04;8.20;99.90
21678;DHT22;11000;50.360;7.582;2024-03-02T01:02:29;8.20;99.90
21678;DHT22;11000;50.360;7.582;2024-03-02T01:04:50;8.20;99.90
21678;DHT22;11000;50.360;7.582;2024-03-02T01:07:10;8.20;99.90
21678;DHT22;11000;50.360;7.582;2024-03-02T01:09:31;8.20;99.90
21678;DHT22;11000;50.360;7.582;2024-03-02T01:11:51;8.20;99.90
21678;DHT22;11000;50.360;7.582;2024-03-02T01:14:12;8.30;99.90
21678;DHT22;11000;50.360;7.582;2024-03-02T01:16:32;8.30;99.90
21678;DHT22;11000;50.360;7.582;2024-03-02T01:18:53;8.20;99.90
21678;DHT22;11000;50.360;7.582;2024-03-02T01:21:13;8.20;99.90
21678;DHT22;11000;50.360;7.582;2024-03-02T01:23:34;8.20;99.90
21678;DHT22;11000;50.360;7.582;2024-03-02T01:25:54;8.20;99.90
21678;DHT22;11000;50.360;7.582;2024-03-02T01:28:15;8.20;99.90
21678;DHT22;11000;50.360;7.582;2024-03-02T01:30:36;8.20;99.90
21678;DHT22;11000;50.360;7.582;2024-03-02T01:32:56;8.10;99.90
21678;DHT22;11000;50.360;7.582;2024-03-02T01:35:19;8.10;99.90
21678;DHT22;11000;50.360;7.582;2024-03-02T01:37:39;8.10;99.90
21678;DHT22;11000;50.360;7.582;2024-03-02T01:40:00;8.10;99.90
21678;DHT22;11000;50.360;7.582;2024-03-02T01:42:21;8.00;99.90
21678;DHT22;11000;50.360;7.582;2024-03-02T01:44:41;8.00;99.90
21678;DHT22;11000;50.360;7.582;2024-03-02T01:47:02;8.00;99.90
21678;DHT22;11000;50.360;7.582;2024-03-02T01:49:22;8.00;99.90
21678;DHT22;11000;50.360;7.582;2024-03-02T01:51:43;8.00;99.90
21678;DHT22;11000;50.360;7.582;2024-03-02T01:54:03;7.90;99.90
21678;DHT22;11000;50.360;7.582;2024-03-02T01:56:24;7.90;99.90
21678;DHT22;11000;50.360;7.582;2024-03-02T01:58:44;7.90;99.90
21678;DHT22;11000;50.360;7.582;2024-03-02T02:01:05;7.80;99.90
21678;DHT22;11000;50.360;7.582;2024-03-02T02:03:25;7.80;99.90
21678;DHT22;11000;50.360;7.582;2024-03-02T02:05:46;7.80;99.90
21678;DHT22;11000;50.360;7.582;2024-03-02T02:08:08;7.80;99.90
21678;DHT22;11000;50.360;7.582;2024-03-02T02:10:28;7.80;99.90
21678;DHT22;11000;50.360;7.582;2024-03-02T02:12:49;7.70;99.90
21678;DHT22;11000;50.360;7.582;2024-03-02T02:15:23;7.70;99.90
21678;DHT22;11000;50.360;7.582;2024-03-02T02:17:44;7.60;99.90
21678;DHT22;11000;50.360;7.582;2024-03-02T02:20:05;7.60;99.90
21678;DHT22;11000;50.360;7.582;2024-03-02T02:22:25;7.60;99.90
21678;DHT22;11000;50.360;7.582;2024-03-02T02:24:46;7.50;99.90
21678;DHT22;11000;50.360;7.582;2024-03-02T02:27:07;7.50;99.90
21678;DHT22;11000;50.360;7.582;2024-03-02T02:29:27;7.50;99.90
21678;DHT22;11000;50.360;7.582;2024-03-02T02:31:48;7.50;99.90
21678;DHT22;11000;50.360;7.582;2024-03-02T02:34:08;7.60;99.90
21678;DHT22;11000;50.360;7.582;2024-03-02T02:36:29;7.50;99.90
21678;DHT22;11000;50.360;7.582;2024-03-02T02:38:50;7.60;99.90
21678;DHT22;11000;50.360;7.582;2024-03-02T02:41:10;7.50;99.90
21678;DHT22;11000;50.360;7.582;2024-03-02T02:43:31;7.50;99.90
21678;DHT22;11000;50.360;7.582;2024-03-02T02:45:51;7.50;99.90
21678;DHT22;11000;50.360;7.582;2024-03-02T02:48:12;7.50;99.90
21678;DHT22;11000;50.360;7.582;2024-03-02T02:50:32;7.40;99.90
21678;DHT22;11000;50.360;7.582;2024-03-02T02:52:53;7.50;99.90
21678;DHT22;11000;50.360;7.582;2024-03-02T02:55:14;7.40;99.90
21678;DHT22;11000;50.360;7.582;2024-03-02T02:57:36;7.50;99.90
21678;DHT22;11000;50.360;7.582;2024-03-02T03:00:01;7.40;99.90
21678;DHT22;11000;50.360;7.582;2024-03-02T03:02:24;7.40;99.90
21678;DHT22;11000;50.360;7.582;2024-03-02T03:04:44;7.50;99.90
21678;DHT22;11000;50.360;7.582;2024-03-02T03:07:05;7.40;99.90
21678;DHT22;11000;50.360;7.582;2024-03-02T03:09:26;7.40;99.90
21678;DHT22;11000;50.360;7.582;2024-03-02T03:11:46;7.40;99.90
21678;DHT22;11000;50.360;7.582;2024-03-02T03:14:07;7.40;99.90
21678;DHT22;11000;50.360;7.582;2024-03-02T03:16:27;7.40;99.90
21678;DHT22;11000;50.360;7.582;2024-03-02T03:18:48;7.40;99.90
21678;DHT22;11000;50.360;7.582;2024-03-02T03:21:11;7.30;99.90
21678;DHT22;11000;50.360;7.582;2024-03-02T03:23:32;7.30;99.90
21678;DHT22;11000;50.360;7.582;2024-03-02T03:25:52;7.30;99.90
21678;DHT22;11000;50.360;7.582;2024-03-02T03:28:13;7.20;99.90
21678;DHT22;11000;50.360;7.582;2024-03-02T03:30:33;7.20;99.90
21678;DHT22;11000;50.360;7.582;2024-03-02T03:32:54;7.20;99.90
21678;DHT22;11000;50.360;7.582;2024-03-02T03:35:14;7.20;99.90
21678;DHT22;11000;50.360;7.582;2024-03-02T03:37:38;7.20;99.90
21678;DHT22;11000;50.360;7.582;2024-03-02T03:40:00;7.20;99.90
21678;DHT22;11000;50.360;7.582;2024-03-02T03:42:21;7.20;99.90
21678;DHT22;11000;50.360;7.582;2024-03-02T03:44:41;7.10;99.90
21678;DHT22;11000;50.360;7.582;2024-03-02T03:47:02;7.10;99.90
21678;DHT22;11000;50.360;7.582;2024-03-02T03:49:23;7.10;99.90
21678;DHT22;11000;50.360;7.582;2024-03-02T03:51:43;7.10;99.90
21678;DHT22;11000;50.360;7.582;2024-03-02T03:54:04;7.10;99.90
21678;DHT22;11000;50.360;7.582;2024-03-02T03:56:24;7.00;99.90
21678;DHT22;11000;50.360;7.582;2024-03-02T03:58:45;7.10;99.90
21678;DHT22;11000;50.360;7.582;2024-03-02T04:01:05;7.10;99.90
21678;DHT22;11000;50.360;7.582;2024-03-02T04:03:26;7.00;99.90
21678;DHT22;11000;50.360;7.582;2024-03-02T04:05:46;7.00;99.90
21678;DHT22;11000;50.360;7.582;2024-03-02T04:08:06;7.00;99.90
21678;DHT22;11000;50.360;7.582;2024-03-02T04:10:27;6.90;99.90
21678;DHT22;11000;50.360;7.582;2024-03-02T04:12:49;7.00;99.90
21678;DHT22;11000;50.360;7.582;2024-03-02T04:15:10;6.90;99.90
21678;DHT22;11000;50.360;7.582;2024-03-02T04:17:32;6.90;99.90
21678;DHT22;11000;50.360;7.582;2024-03-02T04:19:53;7.00;99.90
21678;DHT22;11000;50.360;7.582;2024-03-02T04:22:13;7.00;99.90
21678;DHT22;11000;50.360;7.582;2024-03-02T04:24:34;7.00;99.90
21678;DHT22;11000;50.360;7.582;2024-03-02T04:26:54;7.00;99.90
21678;DHT22;11000;50.360;7.582;2024-03-02T04:29:15;7.00;99.90
21678;DHT22;11000;50.360;7.582;2024-03-02T04:31:35;7.00;99.90
21678;DHT22;11000;50.360;7.582;2024-03-02T04:33:56;7.00;99.90
21678;DHT22;11000;50.360;7.582;2024-03-02T04:36:16;7.00;99.90
21678;DHT22;11000;50.360;7.582;2024-03-02T04:38:38;7.00;99.90
21678;DHT22;11000;50.360;7.582;2024-03-02T04:40:58;7.00;99.90
21678;DHT22;11000;50.360;7.582;2024-03-02T04:43:19;7.10;99.90
21678;DHT22;11000;50.360;7.582;2024-03-02T04:45:39;7.10;99.90
21678;DHT22;11000;50.360;7.582;2024-03-02T04:48:00;7.00;99.90
21678;DHT22;11000;50.360;7.582;2024-03-02T04:50:20;7.10;99.90
21678;DHT22;11000;50.360;7.582;2024-03-02T04:52:41;7.10;99.90
21678;DHT22;11000;50.360;7.582;2024-03-02T04:55:02;7.10;99.90
21678;DHT22;11000;50.360;7.582;2024-03-02T04:57:41;7.10;99.90
21678;DHT22;11000;50.360;7.582;2024-03-02T05:00:02;7.10;99.90
21678;DHT22;11000;50.360;7.582;2024-03-02T05:02:27;7.10;99.90
21678;DHT22;11000;50.360;7.582;2024-03-02T05:04:47;7.10;99.90
21678;DHT22;11000;50.360;7.582;2024-03-02T05:07:08;7.10;99.90
21678;DHT22;11000;50.360;7.582;2024-03-02T05:09:29;7.10;99.90
21678;DHT22;11000;50.360;7.582;2024-03-02T05:11:49;7.10;99.90
21678;DHT22;11000;50.360;7.582;2024-03-02T05:14:28;7.10;99.90
21678;DHT22;11000;50.360;7.582;2024-03-02T05:16:49;7.10;99.90
21678;DHT22;11000;50.360;7.582;2024-03-02T05:19:09;7.10;99.90
21678;DHT22;11000;50.360;7.582;2024-03-02T05:21:30;7.10;99.90
21678;DHT22;11000;50.360;7.582;2024-03-02T05:23:50;7.10;99.90
21678;DHT22;11000;50.360;7.582;2024-03-02T05:26:11;7.10;99.90
21678;DHT22;11000;50.360;7.582;2024-03-02T05:28:33;7.10;99.90
21678;DHT22;11000;50.360;7.582;2024-03-02T05:30:53;7.10;99.90
21678;DHT22;11000;50.360;7.582;2024-03-02T05:33:14;7.00;99.90
21678;DHT22;11000;50.360;7.582;2024-03-02T05:35:34;7.10;99.90
21678;DHT22;11000;50.360;7.582;2024-03-02T05:37:55;7.00;99.90
21678;DHT22;11000;50.360;7.582;2024-03-02T05:40:15;7.00;99.90
21678;DHT22;11000;50.360;7.582;2024-03-02T05:42:36;7.00;99.90
21678;DHT22;11000;50.360;7.582;2024-03-02T05:44:57;7.00;99.90
21678;DHT22;11000;50.360;7.582;2024-03-02T05:47:17;7.00;99.90
21678;DHT22;11000;50.360;7.582;2024-03-02T05:49:38;7.00;99.90
21678;DHT22;11000;50.360;7.582;2024-03-02T05:51:59;7.00;99.90
21678;DHT22;11000;50.360;7.582;2024-03-02T05:54:20;7.00;99.90
21678;DHT22;11000;50.360;7.582;2024-03-02T05:56:40;7.00;99.90
21678;DHT22;11000;50.360;7.582;2024-03-02T05:59:01;7.00;99.90
21678;DHT22;11000;50.360;7.582;2024-03-02T06:01:43;7.10;99.90
21678;DHT22;11000;50.360;7.582;2024-03-02T06:04:04;7.10;99.90
21678;DHT22;11000;50.360;7.582;2024-03-02T06:06:25;7.10;99.90
21678;DHT22;11000;50.360;7.582;2024-03-02T06:08:45;7.10;99.90
21678;DHT22;11000;50.360;7.582;2024-03-02T06:11:06;7.10;99.90
21678;DHT22;11000;50.360;7.582;2024-03-02T06:13:26;7.10;99.90
21678;DHT22;11000;50.360;7.582;2024-03-02T06:15:47;7.10;99.90
21678;DHT22;11000;50.360;7.582;2024-03-02T06:18:07;7.20;99.90
21678;DHT22;11000;50.360;7.582;2024-03-02T06:20:28;7.10;99.90
21678;DHT22;11000;50.360;7.582;2024-03-02T06:22:51;7.10;99.90
21678;DHT22;11000;50.360;7.582;2024-03-02T06:25:11;7.20;99.90
21678;DHT22;11000;50.360;7.582;2024-03-02T06:27:32;7.20;99.90
21678;DHT22;11000;50.360;7.582;2024-03-02T06:29:52;7.20;99.90
21678;DHT22;11000;50.360;7.582;2024-03-02T06:32:13;7.20;99.90
21678;DHT22;11000;50.360;7.582;2024-03-02T06:34:34;7.20;99.90
21678;DHT22;11000;50.360;7.582;2024-03-02T06:36:54;7.20;99.90
21678;DHT22;11000;50.360;7.582;2024-03-02T06:39:15;7.20;99.90
21678;DHT22;11000;50.360;7.582;2024-03-02T06:41:35;7.20;99.90
21678;DHT22;11000;50.360;7.582;2024-03-02T06:43:56;7.20;99.90
21678;DHT22;11000;50.360;7.582;2024-03-02T06:46:19;7.20;99.90
21678;DHT22;11000;50.360;7.582;2024-03-02T06:48:40;7.30;99.90
21678;DHT22;11000;50.360;7.582;2024-03-02T06:51:00;7.30;99.90
21678;DHT22;11000;50.360;7.582;2024-03-02T06:53:21;7.30;99.90
21678;DHT22;11000;50.360;7.582;2024-03-02T06:55:45;7.40;99.90
21678;DHT22;11000;50.360;7.582;2024-03-02T06:58:06;7.40;99.90
21678;DHT22;11000;50.360;7.582;2024-03-02T07:00:26;7.40;99.90
21678;DHT22;11000;50.360;7.582;2024-03-02T07:02:47;7.40;99.90
21678;DHT22;11000;50.360;7.582;2024-03-02T07:05:07;7.50;99.90
21678;DHT22;11000;50.360;7.582;2024-03-02T07:07:28;7.50;99.90
21678;DHT22;11000;50.360;7.582;2024-03-02T07:09:49;7.50;99.90
21678;DHT22;11000;50.360;7.582;2024-03-02T07:12:10;7.50;99.90
21678;DHT22;11000;50.360;7.582;2024-03-02T07:14:30;7.60;99.90
21678;DHT22;11000;50.360;7.582;2024-03-02T07:17:09;7.60;99.90
21678;DHT22;11000;50.360;7.582;2024-03-02T07:19:30;7.60;99.90
21678;DHT22;11000;50.360;7.582;2024-03-02T07:21:51;7.60;99.90
21678;DHT22;11000;50.360;7.582;2024-03-02T07:24:12;7.60;99.90
21678;DHT22;11000;50.360;7.582;2024-03-02T07:26:35;7.70;99.90
21678;DHT22;11000;50.360;7.582;2024-03-02T07:28:55;7.70;99.90
21678;DHT22;11000;50.360;7.582;2024-03-02T07:31:16;7.60;99.90
21678;DHT22;11000;50.360;7.582;2024-03-02T07:33:36;7.70;99.90
21678;DHT22;11000;50.360;7.582;2024-03-02T07:35:59;7.70;99.90
21678;DHT22;11000;50.360;7.582;2024-03-02T07:38:21;7.70;99.90
21678;DHT22;11000;50.360;7.582;2024-03-02T07:40:42;7.70;99.90
21678;DHT22;11000;50.360;7.582;2024-03-02T07:43:03;7.80;99.90
21678;DHT22;11000;50.360;7.582;2024-03-02T07:45:23;8.10;99.90
21678;DHT22;11000;50.360;7.582;2024-03-02T07:47:44;8.40;99.90
21678;DHT22;11000;50.360;7.582;2024-03-02T07:50:05;8.90;99.90
21678;DHT22;11000;50.360;7.582;2024-03-02T07:52:29;9.20;99.90
21678;DHT22;11000;50.360;7.582;2024-03-02T07:54:50;9.40;99.90
21678;DHT22;11000;50.360;7.582;2024-03-02T07:57:11;9.60;99.90
21678;DHT22;11000;50.360;7.582;2024-03-02T07:59:31;9.70;99.90
21678;DHT22;11000;50.360;7.582;2024-03-02T08:01:52;9.60;99.90
21678;DHT22;11000;50.360;7.582;2024-03-02T08:04:12;9.50;99.90
21678;DHT22;11000;50.360;7.582;2024-03-02T08:06:33;9.70;99.90
21678;DHT22;11000;50.360;7.582;2024-03-02T08:08:54;9.70;99.90
21678;DHT22;11000;50.360;7.582;2024-03-02T08:11:15;9.60;99.90
21678;DHT22;11000;50.360;7.582;2024-03-02T08:13:36;9.50;99.90
21678;DHT22;11000;50.360;7.582;2024-03-02T08:15:56;9.50;99.90
21678;DHT22;11000;50.360;7.582;2024-03-02T08:18:17;9.50;99.90
21678;DHT22;11000;50.360;7.582;2024-03-02T08:20:38;9.60;99.90
21678;DHT22;11000;50.360;7.582;2024-03-02T08:22:59;9.60;99.90
21678;DHT22;11000;50.360;7.582;2024-03-02T08:25:19;9.60;99.90
21678;DHT22;11000;50.360;7.582;2024-03-02T08:27:40;9.60;99.90
21678;DHT22;11000;50.360;7.582;2024-03-02T08:30:00;9.60;99.90
21678;DHT22;11000;50.360;7.582;2024-03-02T08:32:21;9.70;99.90
21678;DHT22;11000;50.360;7.582;2024-03-02T08:34:43;9.70;99.90
21678;DHT22;11000;50.360;7.582;2024-03-02T08:37:03;9.70;99.90
21678;DHT22;11000;50.360;7.582;2024-03-02T08:39:24;9.70;99.90
21678;DHT22;11000;50.360;7.582;2024-03-02T08:41:45;9.80;99.90
21678;DHT22;11000;50.360;7.582;2024-03-02T08:44:06;9.70;99.90
21678;DHT22;11000;50.360;7.582;2024-03-02T08:46:26;9.80;99.90
21678;DHT22;11000;50.360;7.582;2024-03-02T08:48:47;9.90;99.90
21678;DHT22;11000;50.360;7.582;2024-03-02T08:51:07;9.90;99.90
21678;DHT22;11000;50.360;7.582;2024-03-02T08:53:30;10.00;99.90
21678;DHT22;11000;50.360;7.582;2024-03-02T08:55:51;10.10;99.90
21678;DHT22;11000;50.360;7.582;2024-03-02T08:58:11;10.20;99.90
21678;DHT22;11000;50.360;7.582;2024-03-02T09:00:32;10.30;99.90
21678;DHT22;11000;50.360;7.582;2024-03-02T09:02:52;10.40;99.90
21678;DHT22;11000;50.360;7.582;2024-03-02T09:05:13;10.30;99.90
21678;DHT22;11000;50.360;7.582;2024-03-02T09:07:34;10.40;99.90
21678;DHT22;11000;50.360;7.582;2024-03-02T09:09:54;10.50;99.90
21678;DHT22;11000;50.360;7.582;2024-03-02T09:12:15;10.50;99.90
21678;DHT22;11000;50.360;7.582;2024-03-02T09:14:36;10.50;99.90
21678;DHT22;11000;50.360;7.582;2024-03-02T09:16:57;10.70;99.90
21678;DHT22;11000;50.360;7.582;2024-03-02T09:19:17;10.80;99.90
21678;DHT22;11000;50.360;7.582;2024-03-02T09:21:39;10.90;99.90
21678;DHT22;11000;50.360;7.582;2024-03-02T09:23:59;10.90;99.90
21678;DHT22;11000;50.360;7.582;2024-03-02T09:26:20;10.80;99.90
21678;DHT22;11000;50.360;7.582;2024-03-02T09:28:44;10.80;99.90
21678;DHT22;11000;50.360;7.582;2024-03-02T09:31:04;10.80;99.90
21678;DHT22;11000;50.360;7.582;2024-03-02T09:33:25;10.80;99.90
21678;DHT22;11000;50.360;7.582;2024-03-02T09:35:46;10.90;99.90
21678;DHT22;11000;50.360;7.582;2024-03-02T09:38:07;10.90;99.90
21678;DHT22;11000;50.360;7.582;2024-03-02T09:40:27;10.90;99.90
21678;DHT22;11000;50.360;7.582;2024-03-02T09:42:49;10.90;99.90
21678;DHT22;11000;50.360;7.582;2024-03-02T09:45:13;11.00;99.90
21678;DHT22;11000;50.360;7.582;2024-03-02T09:47:33;10.90;99.90
21678;DHT22;11000;50.360;7.582;2024-03-02T09:49:54;11.00;99.90
21678;DHT22;11000;50.360;7.582;2024-03-02T09:52:16;11.00;99.90
21678;DHT22;11000;50.360;7.582;2024-03-02T09:54:36;11.10;99.90
21678;DHT22;11000;50.360;7.582;2024-03-02T09:56:57;11.20;99.90
21678;DHT22;11000;50.360;7.582;2024-03-02T09:59:17;11.30;99.90
21678;DHT22;11000;50.360;7.582;2024-03-02T10:01:58;11.30;99.90
21678;DHT22;11000;50.360;7.582;2024-03-02T10:04:19;11.30;99.90
21678;DHT22;11000;50.360;7.582;2024-03-02T10:06:40;11.40;99.90
21678;DHT22;11000;50.360;7.582;2024-03-02T10:09:00;11.50;99.90
21678;DHT22;11000;50.360;7.582;2024-03-02T10:11:32;11.50;99.90
21678;DHT22;11000;50.360;7.582;2024-03-02T10:14:07;11.60;99.90
21678;DHT22;11000;50.360;7.582;2024-03-02T10:16:28;11.60;99.90
21678;DHT22;11000;50.360;7.582;2024-03-02T10:18:48;11.70;99.90
21678;DHT22;11000;50.360;7.582;2024-03-02T10:21:18;11.80;99.90
21678;DHT22;11000;50.360;7.582;2024-03-02T10:23:38;11.90;99.90
21678;DHT22;11000;50.360;7.582;2024-03-02T10:25:59;12.00;99.90
21678;DHT22;11000;50.360;7.582;2024-03-02T10:28:19;12.10;99.90
21678;DHT22;11000;50.360;7.582;2024-03-02T10:30:40;12.20;99.90
21678;DHT22;11000;50.360;7.582;2024-03-02T10:33:04;12.30;99.90
21678;DHT22;11000;50.360;7.582;2024-03-02T10:35:26;12.40;99.90
21678;DHT22;11000;50.360;7.582;2024-03-02T10:37:48;12.50;99.90
21678;DHT22;11000;50.360;7.582;2024-03-02T10:40:10;12.60;99.90
21678;DHT22;11000;50.360;7.582;2024-03-02T10:42:31;12.70;99.90
21678;DHT22;11000;50.360;7.582;2024-03-02T10:44:52;12.80;99.90
21678;DHT22;11000;50.360;7.582;2024-03-02T10:47:14;12.90;99.90
21678;DHT22;11000;50.360;7.582;2024-03-02T10:49:37;13.10;99.90
21678;DHT22;11000;50.360;7.582;2024-03-02T10:51:59;13.30;99.90
21678;DHT22;11000;50.360;7.582;2024-03-02T10:54:20;13.50;99.90
21678;DHT22;11000;50.360;7.582;2024-03-02T10:56:46;13.60;99.90
21678;DHT22;11000;50.360;7.582;2024-03-02T11:01:50;13.70;99.90
21678;DHT22;11000;50.360;7.582;2024-03-02T11:04:16;13.60;99.90
21678;DHT22;11000;50.360;7.582;2024-03-02T11:06:38;13.20;99.90
21678;DHT22;11000;50.360;7.582;2024-03-02T11:09:06;12.90;99.90
21678;DHT22;11000;50.360;7.582;2024-03-02T11:11:31;12.90;99.90
21678;DHT22;11000;50.360;7.582;2024-03-02T11:13:53;12.90;99.90
21678;DHT22;11000;50.360;7.582;2024-03-02T11:16:37;13.00;99.90
21678;DHT22;11000;50.360;7.582;2024-03-02T11:18:59;13.00;99.90
21678;DHT22;11000;50.360;7.582;2024-03-02T11:21:21;12.80;99.90
21678;DHT22;11000;50.360;7.582;2024-03-02T11:23:41;12.80;99.90
21678;DHT22;11000;50.360;7.582;2024-03-02T11:26:20;12.70;99.90
21678;DHT22;11000;50.360;7.582;2024-03-02T11:28:40;12.70;99.90
21678;DHT22;11000;50.360;7.582;2024-03-02T11:31:01;12.80;99.90
21678;DHT22;11000;50.360;7.582;2024-03-02T11:33:25;12.80;99.90
21678;DHT22;11000;50.360;7.582;2024-03-02T11:35:47;12.90;99.90
21678;DHT22;11000;50.360;7.582;2024-03-02T11:38:09;13.10;99.90
21678;DHT22;11000;50.360;7.582;2024-03-02T11:40:30;13.00;99.90
21678;DHT22;11000;50.360;7.582;2024-03-02T11:42:51;12.70;99.90
21678;DHT22;11000;50.360;7.582;2024-03-02T11:45:11;12.80;99.90
21678;DHT22;11000;50.360;7.582;2024-03-02T11:47:32;12.90;99.90
21678;DHT22;11000;50.360;7.582;2024-03-02T11:49:53;12.90;99.90
21678;DHT22;11000;50.360;7.582;2024-03-02T11:52:15;13.00;99.90
21678;DHT22;11000;50.360;7.582;2024-03-02T11:54:39;13.00;99.90
21678;DHT22;11000;50.360;7.582;2024-03-02T11:57:02;13.10;99.90
21678;DHT22;11000;50.360;7.582;2024-03-02T11:59:23;13.20;99.90
21678;DHT22;11000;50.360;7.582;2024-03-02T12:01:44;13.30;99.90
21678;DHT22;11000;50.360;7.582;2024-03-02T12:04:07;13.40;99.90
21678;DHT22;11000;50.360;7.582;2024-03-02T12:06:28;13.40;99.90
21678;DHT22;11000;50.360;7.582;2024-03-02T12:08:53;13.60;99.90
21678;DHT22;11000;50.360;7.582;2024-03-02T12:11:15;13.60;99.90
21678;DHT22;11000;50.360;7.582;2024-03-02T12:13:35;13.50;99.90
21678;DHT22;11000;50.360;7.582;2024-03-02T12:15:56;13.50;99.90
21678;DHT22;11000;50.360;7.582;2024-03-02T12:18:17;13.40;99.90
21678;DHT22;11000;50.360;7.582;2024-03-02T12:20:38;13.50;99.90
21678;DHT22;11000;50.360;7.582;2024-03-02T12:23:01;13.40;99.90
21678;DHT22;11000;50.360;7.582;2024-03-02T12:25:23;13.60;99.90
21678;DHT22;11000;50.360;7.582;2024-03-02T12:27:45;13.60;99.90
21678;DHT22;11000;50.360;7.582;2024-03-02T12:30:06;13.60;99.90
21678;DHT22;11000;50.360;7.582;2024-03-02T12:32:30;13.50;99.90
21678;DHT22;11000;50.360;7.582;2024-03-02T12:34:51;13.40;99.90
21678;DHT22;11000;50.360;7.582;2024-03-02T12:37:13;13.40;99.90
21678;DHT22;11000;50.360;7.582;2024-03-02T12:39:34;13.40;99.90
21678;DHT22;11000;50.360;7.582;2024-03-02T12:41:54;13.30;99.90
21678;DHT22;11000;50.360;7.582;2024-03-02T12:44:15;13.30;99.90
21678;DHT22;11000;50.360;7.582;2024-03-02T12:46:36;13.30;99.90
21678;DHT22;11000;50.360;7.582;2024-03-02T12:48:57;13.40;99.90
21678;DHT22;11000;50.360;7.582;2024-03-02T12:51:19;13.60;99.90
21678;DHT22;11000;50.360;7.582;2024-03-02T12:53:39;13.60;99.90
21678;DHT22;11000;50.360;7.582;2024-03-02T12:56:00;13.70;99.90
21678;DHT22;11000;50.360;7.582;2024-03-02T12:58:22;13.70;99.90
21678;DHT22;11000;50.360;7.582;2024-03-02T13:00:42;13.80;99.90
21678;DHT22;11000;50.360;7.582;2024-03-02T13:03:03;13.80;99.90
21678;DHT22;11000;50.360;7.582;2024-03-02T13:05:23;14.10;99.90
21678;DHT22;11000;50.360;7.582;2024-03-02T13:07:47;14.20;99.90
21678;DHT22;11000;50.360;7.582;2024-03-02T13:10:08;14.50;99.90
21678;DHT22;11000;50.360;7.582;2024-03-02T13:12:30;14.60;99.90
21678;DHT22;11000;50.360;7.582;2024-03-02T13:14:54;14.50;99.90
21678;DHT22;11000;50.360;7.582;2024-03-02T13:17:14;14.50;99.90
21678;DHT22;11000;50.360;7.582;2024-03-02T13:19:35;14.80;99.90
21678;DHT22;11000;50.360;7.582;2024-03-02T13:21:55;15.20;99.90
21678;DHT22;11000;50.360;7.582;2024-03-02T13:24:20;14.80;99.90
21678;DHT22;11000;50.360;7.582;2024-03-02T13:26:41;14.60;99.90
21678;DHT22;11000;50.360;7.582;2024-03-02T13:29:01;14.70;99.90
21678;DHT22;11000;50.360;7.582;2024-03-02T13:31:22;14.90;99.90
21678;DHT22;11000;50.360;7.582;2024-03-02T13:33:45;14.80;99.90
21678;DHT22;11000;50.360;7.582;2024-03-02T13:36:05;14.90;99.90
21678;DHT22;11000;50.360;7.582;2024-03-02T13:38:26;15.00;99.90
21678;DHT22;11000;50.360;7.582;2024-03-02T13:40:49;15.00;99.90
21678;DHT22;11000;50.360;7.582;2024-03-02T13:43:12;15.20;99.90
21678;DHT22;11000;50.360;7.582;2024-03-02T13:45:33;15.30;99.90
21678;DHT22;11000;50.360;7.582;2024-03-02T13:47:53;15.40;99.80
21678;DHT22;11000;50.360;7.582;2024-03-02T13:50:14;15.20;98.60
21678;DHT22;11000;50.360;7.582;2024-03-02T13:52:35;15.30;98.70
21678;DHT22;11000;50.360;7.582;2024-03-02T13:54:55;15.20;98.90
21678;DHT22;11000;50.360;7.582;2024-03-02T13:57:16;15.00;99.70
21678;DHT22;11000;50.360;7.582;2024-03-02T13:59:41;15.10;99.00
21678;DHT22;11000;50.360;7.582;2024-03-02T14:02:02;15.30;99.30
21678;DHT22;11000;50.360;7.582;2024-03-02T14:04:26;15.60;99.00
21678;DHT22;11000;50.360;7.582;2024-03-02T14:06:47;15.60;98.40
21678;DHT22;11000;50.360;7.582;2024-03-02T14:09:08;15.50;98.70
21678;DHT22;11000;50.360;7.582;2024-03-02T14:11:28;15.40;98.90
21678;DHT22;11000;50.360;7.582;2024-03-02T14:13:49;15.40;98.40
21678;DHT22;11000;50.360;7.582;2024-03-02T14:16:14;15.20;98.70
21678;DHT22;11000;50.360;7.582;2024-03-02T14:18:34;14.70;99.30
21678;DHT22;11000;50.360;7.582;2024-03-02T14:20:55;14.60;99.80
21678;DHT22;11000;50.360;7.582;2024-03-02T14:23:16;14.70;99.90
21678;DHT22;11000;50.360;7.582;2024-03-02T14:25:37;14.70;99.90
21678;DHT22;11000;50.360;7.582;2024-03-02T14:27:58;14.90;99.90
21678;DHT22;11000;50.360;7.582;2024-03-02T14:30:18;15.00;99.50
21678;DHT22;11000;50.360;7.582;2024-03-02T14:32:39;14.80;99.30
21678;DHT22;11000;50.360;7.582;2024-03-02T14:34:59;14.90;99.20
21678;DHT22;11000;50.360;7.582;2024-03-02T14:37:20;14.70;99.40
21678;DHT22;11000;50.360;7.582;2024-03-02T14:39:41;14.70;99.40
21678;DHT22;11000;50.360;7.582;2024-03-02T14:42:02;14.70;99.80
21678;DHT22;11000;50.360;7.582;2024-03-02T14:44:22;14.70;99.30
21678;DHT22;11000;50.360;7.582;2024-03-02T14:46:43;14.50;99.60
21678;DHT22;11000;50.360;7.582;2024-03-02T14:49:04;14.50;99.60
21678;DHT22;11000;50.360;7.582;2024-03-02T14:51:24;14.40;99.60
21678;DHT22;11000;50.360;7.582;2024-03-02T14:53:45;14.40;99.90
21678;DHT22;11000;50.360;7.582;2024-03-02T14:56:05;14.40;99.60
21678;DHT22;11000;50.360;7.582;2024-03-02T14:58:26;14.40;99.60
21678;DHT22;11000;50.360;7.582;2024-03-02T15:00:47;14.40;99.70
21678;DHT22;11000;50.360;7.582;2024-03-02T15:03:07;14.40;99.60
21678;DHT22;11000;50.360;7.582;2024-03-02T15:05:28;14.40;99.50
21678;DHT22;11000;50.360;7.582;2024-03-02T15:07:49;14.40;99.80